createdAt,value
2017-09-05T00:00:56.520Z,101156.73
2017-09-05T00:03:23.911Z,101149.66
2017-09-05T00:05:51.294Z,101151.16
2017-09-05T00:11:24.379Z,101148.91
2017-09-05T00:13:52.715Z,101153.10
2017-09-05T00:19:28.439Z,101152.09
2017-09-05T00:22:05.710Z,101151.20
2017-09-05T00:24:33.110Z,101146.77
2017-09-05T00:27:00.499Z,101149.69
2017-09-05T00:29:27.898Z,101148.86
2017-09-05T00:31:55.290Z,101149.13
2017-09-05T00:34:22.678Z,101153.80
2017-09-05T00:36:50.078Z,101147.98
2017-09-05T00:39:17.459Z,101153.77
2017-09-05T00:41:44.862Z,101153.98
2017-09-05T00:44:12.257Z,101150.09
2017-09-05T00:46:39.686Z,101142.50
2017-09-05T00:49:07.070Z,101140.23
2017-09-05T00:51:34.464Z,101140.07
2017-09-05T00:54:01.846Z,101136.92
2017-09-05T00:56:29.313Z,101138.64
2017-09-05T01:01:30.470Z,101142.63
2017-09-05T01:03:57.860Z,101140.33
2017-09-05T01:06:25.255Z,101143.13
2017-09-05T01:08:52.642Z,101145.70
2017-09-05T01:11:20.034Z,101138.33
2017-09-05T01:13:47.430Z,101128.83
2017-09-05T01:16:14.906Z,101123.81
2017-09-05T01:18:42.292Z,101132.40
2017-09-05T01:21:09.713Z,101128.52
2017-09-05T01:23:37.102Z,101130.26
2017-09-05T01:26:04.520Z,101136.05
2017-09-05T01:28:31.910Z,101133.99
2017-09-05T01:30:59.306Z,101135.52
2017-09-05T01:33:26.710Z,101128.63
2017-09-05T01:35:54.142Z,101130.04
2017-09-05T01:38:21.570Z,101132.34
2017-09-05T01:40:48.954Z,101139.20
2017-09-05T01:43:16.362Z,101136.98
2017-09-05T01:45:43.742Z,101140.47
2017-09-05T01:48:11.223Z,101142.79
2017-09-05T01:50:38.614Z,101135.86
2017-09-05T01:53:06.018Z,101144.82
2017-09-05T01:55:33.412Z,101138.73
2017-09-05T01:58:00.846Z,101145.83
2017-09-05T02:00:28.234Z,101141.90
2017-09-05T02:02:55.632Z,101138.36
2017-09-05T02:05:23.106Z,101137.88
2017-09-05T02:07:50.494Z,101130.12
2017-09-05T02:10:17.922Z,101132.89
2017-09-05T02:12:45.311Z,101131.27
2017-09-05T02:15:12.704Z,101132.52
2017-09-05T02:17:40.082Z,101131.78
2017-09-05T02:20:07.542Z,101130.30
2017-09-05T02:22:34.934Z,101130.37
2017-09-05T02:25:02.331Z,101129.34
2017-09-05T02:27:29.714Z,101132.16
2017-09-05T02:29:57.111Z,101128.89
2017-09-05T02:32:24.495Z,101131.67
2017-09-05T02:34:51.907Z,101134.16
2017-09-05T02:37:19.302Z,101135.65
2017-09-05T02:39:46.742Z,101135.59
2017-09-05T02:42:14.122Z,101128.86
2017-09-05T02:44:41.519Z,101121.03
2017-09-05T02:47:08.959Z,101125.54
2017-09-05T02:49:36.414Z,101124.16
2017-09-05T02:52:03.813Z,101120.63
2017-09-05T02:54:31.204Z,101127.14
2017-09-05T02:56:58.586Z,101114.98
2017-09-05T02:59:25.997Z,101111.81
2017-09-05T03:01:53.383Z,101110.58
2017-09-05T03:04:20.779Z,101117.07
2017-09-05T03:06:48.180Z,101108.52
2017-09-05T03:09:15.650Z,101106.03
2017-09-05T03:11:43.042Z,101111.04
2017-09-05T03:14:10.466Z,101116.56
2017-09-05T03:16:37.918Z,101113.15
2017-09-05T03:19:05.324Z,101106.42
2017-09-05T03:21:32.734Z,101108.27
2017-09-05T03:24:00.186Z,101102.98
2017-09-05T03:26:27.646Z,101106.27
2017-09-05T03:28:55.040Z,101106.25
2017-09-05T03:31:22.438Z,101101.75
2017-09-05T03:33:49.830Z,101098.13
2017-09-05T03:36:17.260Z,101094.95
2017-09-05T03:38:44.723Z,101090.20
2017-09-05T03:41:12.131Z,101084.41
2017-09-05T03:43:39.517Z,101083.66
2017-09-05T03:46:06.924Z,101089.23
2017-09-05T03:48:34.342Z,101087.64
2017-09-05T03:51:01.803Z,101090.69
2017-09-05T03:53:29.203Z,101098.73
2017-09-05T03:55:56.611Z,101097.24
2017-09-05T03:58:24.075Z,101096.70
2017-09-05T04:00:51.470Z,101104.51
2017-09-05T04:03:18.872Z,101111.66
2017-09-05T04:05:46.271Z,101113.18
2017-09-05T04:08:13.674Z,101107.30
2017-09-05T04:10:41.071Z,101111.33
2017-09-05T04:13:08.498Z,101107.71
2017-09-05T04:15:35.887Z,101108.80
2017-09-05T04:18:03.293Z,101112.09
2017-09-05T04:20:30.690Z,101114.48
2017-09-05T04:22:58.090Z,101111.27
2017-09-05T04:25:25.582Z,101113.23
2017-09-05T04:27:52.975Z,101112.51
2017-09-05T04:30:20.391Z,101119.33
2017-09-05T04:32:47.795Z,101124.77
2017-09-05T04:35:15.194Z,101127.48
2017-09-05T04:37:42.603Z,101130.19
2017-09-05T04:40:09.994Z,101118.16
2017-09-05T04:42:37.382Z,101122.72
2017-09-05T04:45:04.786Z,101121.47
2017-09-05T04:47:32.178Z,101129.77
2017-09-05T04:49:59.582Z,101131.24
2017-09-05T04:52:26.978Z,101137.86
2017-09-05T04:54:54.374Z,101136.95
2017-09-05T04:57:21.766Z,101133.50
2017-09-05T04:59:49.182Z,101131.74
2017-09-05T05:02:16.602Z,101135.23
2017-09-05T05:04:44.062Z,101139.38
2017-09-05T05:07:11.458Z,101135.53
2017-09-05T05:09:38.854Z,101139.82
2017-09-05T05:12:06.330Z,101133.62
2017-09-05T05:14:33.730Z,101141.61
2017-09-05T05:17:01.136Z,101149.81
2017-09-05T05:19:28.528Z,101156.90
2017-09-05T05:21:55.916Z,101162.19
2017-09-05T05:24:23.407Z,101158.78
2017-09-05T05:26:50.794Z,101161.67
2017-09-05T05:29:18.199Z,101157.43
2017-09-05T05:31:45.591Z,101155.29
2017-09-05T05:34:12.974Z,101154.88
2017-09-05T05:36:40.378Z,101156.33
2017-09-05T05:39:07.771Z,101151.39
2017-09-05T05:41:35.194Z,101150.45
2017-09-05T05:44:02.587Z,101145.73
2017-09-05T05:46:30.007Z,101148.00
2017-09-05T05:48:57.458Z,101149.69
2017-09-05T05:51:24.858Z,101151.98
2017-09-05T05:53:52.242Z,101150.75
2017-09-05T05:56:19.726Z,101142.95
2017-09-05T05:58:47.186Z,101135.72
2017-09-05T06:01:14.586Z,101130.02
2017-09-05T06:03:41.990Z,101135.07
2017-09-05T06:06:09.387Z,101135.47
2017-09-05T06:08:36.830Z,101133.56
2017-09-05T06:11:04.231Z,101130.75
2017-09-05T06:13:31.723Z,101120.66
2017-09-05T06:15:59.126Z,101127.97
2017-09-05T06:18:26.510Z,101130.02
2017-09-05T06:20:53.918Z,101133.52
2017-09-05T06:23:21.302Z,101130.27
2017-09-05T06:25:48.698Z,101134.94
2017-09-05T06:28:16.095Z,101134.79
2017-09-05T06:30:43.477Z,101130.92
2017-09-05T06:33:10.931Z,101135.45
2017-09-05T06:35:38.414Z,101144.05
2017-09-05T06:38:05.815Z,101143.66
2017-09-05T06:40:33.198Z,101145.97
2017-09-05T06:43:00.587Z,101148.20
2017-09-05T06:45:27.974Z,101148.02
2017-09-05T06:47:55.366Z,101139.20
2017-09-05T06:50:22.855Z,101138.84
2017-09-05T06:52:50.242Z,101137.84
2017-09-05T06:55:17.662Z,101143.76
2017-09-05T06:57:45.054Z,101143.59
2017-09-05T07:00:12.467Z,101145.20
2017-09-05T07:02:39.926Z,101147.45
2017-09-05T07:05:07.383Z,101150.27
2017-09-05T07:07:34.775Z,101151.80
2017-09-05T07:10:02.203Z,101152.30
2017-09-05T07:12:29.630Z,101144.94
2017-09-05T07:14:57.115Z,101153.53
2017-09-05T07:17:24.574Z,101148.36
2017-09-05T07:19:51.966Z,101148.05
2017-09-05T07:22:19.358Z,101151.41
2017-09-05T07:24:46.737Z,101155.59
2017-09-05T07:27:14.195Z,101153.05
2017-09-05T07:29:41.652Z,101149.65
2017-09-05T07:32:09.042Z,101147.72
2017-09-05T07:34:36.464Z,101145.08
2017-09-05T07:37:03.850Z,101154.05
2017-09-05T07:39:31.238Z,101147.06
2017-09-05T07:41:58.695Z,101152.41
2017-09-05T07:44:26.191Z,101148.39
2017-09-05T07:46:53.648Z,101156.64
2017-09-05T07:49:21.411Z,101154.17
2017-09-05T07:51:48.799Z,101153.86
2017-09-05T07:54:16.190Z,101154.33
2017-09-05T07:56:43.572Z,101157.39
2017-09-05T07:59:10.962Z,101165.48
2017-09-05T08:01:38.392Z,101156.16
2017-09-05T08:04:05.838Z,101159.28
2017-09-05T08:06:33.219Z,101155.30
2017-09-05T08:09:00.610Z,101155.91
2017-09-05T08:11:28.019Z,101151.73
2017-09-05T08:13:55.478Z,101153.64
2017-09-05T08:16:22.866Z,101145.04
2017-09-05T08:18:50.287Z,101144.45
2017-09-05T08:21:17.742Z,101138.97
2017-09-05T08:23:45.195Z,101139.04
2017-09-05T08:26:12.586Z,101137.80
2017-09-05T08:28:40.002Z,101140.97
2017-09-05T08:31:07.462Z,101129.30
2017-09-05T08:33:34.845Z,101136.30
2017-09-05T08:36:02.241Z,101137.49
2017-09-05T08:38:29.623Z,101140.48
2017-09-05T08:40:57.018Z,101134.38
2017-09-05T08:43:24.402Z,101127.02
2017-09-05T08:45:51.806Z,101132.02
2017-09-05T08:48:19.254Z,101124.61
2017-09-05T08:50:46.650Z,101134.39
2017-09-05T08:53:14.075Z,101129.41
2017-09-05T08:55:41.534Z,101130.30
2017-09-05T08:58:08.918Z,101131.94
2017-09-05T09:00:36.330Z,101129.05
2017-09-05T09:03:03.718Z,101133.56
2017-09-05T09:05:31.123Z,101136.70
2017-09-05T09:07:58.508Z,101139.73
2017-09-05T09:10:25.896Z,101135.33
2017-09-05T09:12:53.291Z,101134.47
2017-09-05T09:15:20.679Z,101128.02
2017-09-05T09:17:48.070Z,101126.08
2017-09-05T09:20:15.455Z,101121.44
2017-09-05T09:22:42.943Z,101118.44
2017-09-05T09:25:10.327Z,101123.31
2017-09-05T09:27:37.727Z,101120.06
2017-09-05T09:30:05.207Z,101126.22
2017-09-05T09:32:32.597Z,101120.70
2017-09-05T09:35:00.030Z,101118.71
2017-09-05T09:37:27.483Z,101118.70
2017-09-05T09:39:54.863Z,101115.37
2017-09-05T09:42:22.260Z,101117.88
2017-09-05T09:44:49.655Z,101118.51
2017-09-05T09:47:17.102Z,101119.95
2017-09-05T09:49:44.499Z,101116.73
2017-09-05T09:52:11.890Z,101120.38
2017-09-05T09:54:39.270Z,101112.75
2017-09-05T09:57:06.654Z,101113.95
2017-09-05T09:59:34.051Z,101113.88
2017-09-05T10:02:01.442Z,101118.78
2017-09-05T10:04:28.831Z,101118.12
2017-09-05T10:06:56.224Z,101117.11
2017-09-05T10:09:23.705Z,101107.94
2017-09-05T10:11:51.091Z,101110.84
2017-09-05T10:14:18.494Z,101108.31
2017-09-05T10:16:45.879Z,101107.23
2017-09-05T10:19:13.267Z,101105.17
2017-09-05T10:21:40.654Z,101096.58
2017-09-05T10:24:08.043Z,101098.78
2017-09-05T10:26:35.447Z,101092.86
2017-09-05T10:29:02.911Z,101090.03
2017-09-05T10:31:30.303Z,101096.09
2017-09-05T10:33:57.690Z,101083.08
2017-09-05T10:36:25.079Z,101079.34
2017-09-05T10:38:52.470Z,101078.08
2017-09-05T10:43:54.927Z,101076.79
2017-09-05T10:46:22.314Z,101077.94
2017-09-05T10:48:49.700Z,101080.78
2017-09-05T10:51:17.079Z,101076.70
2017-09-05T10:53:44.471Z,101079.91
2017-09-05T10:56:11.902Z,101080.87
2017-09-05T10:58:39.287Z,101075.91
2017-09-05T11:01:06.684Z,101080.89
2017-09-05T11:03:34.062Z,101078.46
2017-09-05T11:06:01.526Z,101075.67
2017-09-05T11:08:28.919Z,101081.55
2017-09-05T11:10:56.309Z,101082.89
2017-09-05T11:13:23.696Z,101075.05
2017-09-05T11:15:51.088Z,101075.52
2017-09-05T11:18:18.503Z,101070.72
2017-09-05T11:20:45.898Z,101068.14
2017-09-05T11:23:13.319Z,101072.28
2017-09-05T11:25:40.714Z,101066.81
2017-09-05T11:28:08.101Z,101066.27
2017-09-05T11:30:35.591Z,101067.99
2017-09-05T11:33:02.978Z,101072.12
2017-09-05T11:35:30.403Z,101075.64
2017-09-05T11:37:57.829Z,101063.20
2017-09-05T11:40:25.231Z,101060.94
2017-09-05T11:42:52.623Z,101066.89
2017-09-05T11:45:20.023Z,101065.42
2017-09-05T11:47:47.487Z,101064.34
2017-09-05T11:50:14.878Z,101066.91
2017-09-05T11:52:42.299Z,101062.56
2017-09-05T11:55:09.687Z,101061.73
2017-09-05T11:57:37.078Z,101056.22
2017-09-05T12:00:04.458Z,101063.09
2017-09-05T12:02:31.850Z,101063.39
2017-09-05T12:04:59.283Z,101064.46
2017-09-05T12:07:26.676Z,101057.45
2017-09-05T12:09:54.059Z,101066.12
2017-09-05T12:12:21.446Z,101065.34
2017-09-05T12:14:48.834Z,101061.78
2017-09-05T12:17:16.258Z,101061.38
2017-09-05T12:19:43.642Z,101064.11
2017-09-05T12:22:11.038Z,101059.03
2017-09-05T12:24:38.524Z,101052.16
2017-09-05T12:27:05.957Z,101052.13
2017-09-05T12:29:33.443Z,101046.06
2017-09-05T12:32:00.830Z,101042.45
2017-09-05T12:34:28.234Z,101040.14
2017-09-05T12:36:55.628Z,101042.09
2017-09-05T12:39:23.020Z,101039.73
2017-09-05T12:41:50.403Z,101033.83
2017-09-05T12:44:17.878Z,101040.05
2017-09-05T12:46:45.267Z,101040.81
2017-09-05T12:49:12.686Z,101032.41
2017-09-05T12:51:40.146Z,101035.88
2017-09-05T12:54:07.602Z,101031.56
2017-09-05T12:56:34.986Z,101032.73
2017-09-05T12:59:02.386Z,101035.44
2017-09-05T13:01:29.775Z,101028.81
2017-09-05T13:03:57.171Z,101030.92
2017-09-05T13:06:24.554Z,101029.03
2017-09-05T13:08:51.938Z,101025.98
2017-09-05T13:11:19.406Z,101027.25
2017-09-05T13:13:46.790Z,101025.06
2017-09-05T13:16:14.179Z,101015.85
2017-09-05T13:18:41.567Z,101023.28
2017-09-05T13:21:08.963Z,101022.16
2017-09-05T13:23:36.347Z,101022.75
2017-09-05T13:26:03.740Z,101026.39
2017-09-05T13:28:31.126Z,101027.06
2017-09-05T13:30:58.520Z,101025.47
2017-09-05T13:33:25.895Z,101024.17
2017-09-05T13:35:53.290Z,101016.84
2017-09-05T13:38:20.710Z,101016.79
2017-09-05T13:40:48.109Z,101017.38
2017-09-05T13:43:15.526Z,101012.95
2017-09-05T13:45:42.979Z,101008.38
2017-09-05T13:48:10.434Z,101015.52
2017-09-05T13:50:37.895Z,101009.15
2017-09-05T13:53:05.278Z,101008.09
2017-09-05T13:55:32.675Z,101008.71
2017-09-05T13:58:00.062Z,101007.84
2017-09-05T14:00:27.523Z,101007.08
2017-09-05T14:02:54.914Z,101009.00
2017-09-05T14:05:22.303Z,101005.33
2017-09-05T14:07:49.689Z,101003.47
2017-09-05T14:10:17.206Z,100999.28
2017-09-05T14:12:44.702Z,100995.73
2017-09-05T14:15:12.087Z,100997.05
2017-09-05T14:17:39.518Z,100995.14
2017-09-05T14:20:06.899Z,100990.88
2017-09-05T14:22:34.299Z,101005.32
2017-09-05T14:25:01.688Z,101001.34
2017-09-05T14:27:29.142Z,100999.83
2017-09-05T14:29:56.611Z,100992.98
2017-09-05T14:32:24.003Z,100998.16
2017-09-05T14:34:51.419Z,100995.27
2017-09-05T14:37:18.806Z,100988.63
2017-09-05T14:39:46.230Z,100986.31
2017-09-05T14:42:13.629Z,100985.90
2017-09-05T14:44:41.010Z,100978.48
2017-09-05T14:47:08.495Z,100981.12
2017-09-05T14:49:35.974Z,100980.73
2017-09-05T14:52:03.333Z,100969.08
2017-09-05T14:54:30.763Z,100965.61
2017-09-05T14:56:58.142Z,100968.44
2017-09-05T14:59:25.530Z,100962.70
2017-09-05T15:01:52.919Z,100959.42
2017-09-05T15:04:20.310Z,100954.88
2017-09-05T15:06:47.751Z,100963.78
2017-09-05T15:09:15.207Z,100954.37
2017-09-05T15:11:42.666Z,100955.02
2017-09-05T15:14:10.053Z,100954.29
2017-09-05T15:16:37.442Z,100951.11
2017-09-05T15:19:04.835Z,100950.75
2017-09-05T15:21:32.218Z,100952.73
2017-09-05T15:23:59.613Z,100946.88
2017-09-05T15:26:27.094Z,100949.52
2017-09-05T15:28:54.507Z,100950.66
2017-09-05T15:31:21.899Z,100948.95
2017-09-05T15:33:49.366Z,100944.61
2017-09-05T15:36:16.763Z,100947.70
2017-09-05T15:38:44.170Z,100949.36
2017-09-05T15:41:11.566Z,100938.89
2017-09-05T15:43:38.944Z,100945.30
2017-09-05T15:46:06.342Z,100946.89
2017-09-05T15:48:33.722Z,100940.06
2017-09-05T15:51:01.118Z,100942.42
2017-09-05T15:53:28.510Z,100947.59
2017-09-05T15:55:55.982Z,100942.75
2017-09-05T15:58:24.335Z,100948.80
2017-09-05T16:00:51.826Z,100941.38
2017-09-05T16:03:19.213Z,100943.11
2017-09-05T16:05:46.600Z,100950.89
2017-09-05T16:08:13.979Z,100951.34
2017-09-05T16:10:41.386Z,100948.84
2017-09-05T16:13:08.770Z,100938.02
2017-09-05T16:15:36.252Z,100938.86
2017-09-05T16:18:03.634Z,100943.60
2017-09-05T16:20:31.066Z,100938.80
2017-09-05T16:22:58.515Z,100934.92
2017-09-05T16:25:25.906Z,100934.82
2017-09-05T16:27:53.296Z,100930.77
2017-09-05T16:30:20.790Z,100932.19
2017-09-05T16:32:48.174Z,100927.57
2017-09-05T16:35:15.567Z,100925.41
2017-09-05T16:37:43.061Z,100919.41
2017-09-05T16:40:10.519Z,100919.05
2017-09-05T16:42:37.927Z,100920.52
2017-09-05T16:45:05.314Z,100910.45
2017-09-05T16:47:32.783Z,100921.63
2017-09-05T16:50:00.174Z,100920.44
2017-09-05T16:52:27.594Z,100917.55
2017-09-05T16:54:55.071Z,100913.12
2017-09-05T16:57:22.511Z,100906.17
2017-09-05T16:59:49.972Z,100907.95
2017-09-05T17:02:17.372Z,100915.31
2017-09-05T17:04:44.765Z,100902.36
2017-09-05T17:07:12.158Z,100893.57
2017-09-05T17:09:39.538Z,100895.00
2017-09-05T17:12:06.926Z,100891.59
2017-09-05T17:14:34.316Z,100880.63
2017-09-05T17:17:01.703Z,100873.41
2017-09-05T17:19:29.116Z,100871.87
2017-09-05T17:21:56.498Z,100879.94
2017-09-05T17:24:23.893Z,100882.28
2017-09-05T17:26:51.407Z,100883.00
2017-09-05T17:29:18.837Z,100881.63
2017-09-05T17:31:46.298Z,100880.47
2017-09-05T17:34:13.690Z,100889.03
2017-09-05T17:36:41.115Z,100884.44
2017-09-05T17:39:08.566Z,100888.30
2017-09-05T17:41:35.943Z,100882.19
2017-09-05T17:44:03.383Z,100887.99
2017-09-05T17:46:30.787Z,100888.02
2017-09-05T17:48:58.174Z,100891.53
2017-09-05T17:51:25.564Z,100889.77
2017-09-05T17:53:52.955Z,100879.39
2017-09-05T17:56:20.339Z,100886.81
2017-09-05T17:58:47.739Z,100879.28
2017-09-05T18:01:15.117Z,100877.95
2017-09-05T18:03:42.631Z,100872.66
2017-09-05T18:06:10.018Z,100867.46
2017-09-05T18:08:37.408Z,100866.44
2017-09-05T18:11:04.895Z,100868.05
2017-09-05T18:13:32.275Z,100871.28
2017-09-05T18:15:59.682Z,100881.55
2017-09-05T18:18:27.166Z,100884.84
2017-09-05T18:20:54.634Z,100889.30
2017-09-05T18:23:22.006Z,100880.72
2017-09-05T18:25:49.431Z,100880.18
2017-09-05T18:28:16.843Z,100885.57
2017-09-05T18:30:44.250Z,100886.08
2017-09-05T18:33:11.706Z,100887.78
2017-09-05T18:35:39.099Z,100884.58
2017-09-05T18:38:06.519Z,100882.45
2017-09-05T18:40:33.929Z,100884.41
2017-09-05T18:43:01.310Z,100883.83
2017-09-05T18:45:28.782Z,100886.96
2017-09-05T18:47:56.182Z,100889.13
2017-09-05T18:50:23.574Z,100884.08
2017-09-05T18:52:50.961Z,100890.92
2017-09-05T18:55:18.371Z,100888.13
2017-09-05T18:57:45.862Z,100886.44
2017-09-05T19:00:13.318Z,100888.89
2017-09-05T19:02:40.774Z,100881.70
2017-09-05T19:05:08.163Z,100883.08
2017-09-05T19:07:35.558Z,100882.64
2017-09-05T19:10:03.047Z,100883.75
2017-09-05T19:12:30.447Z,100873.73
2017-09-05T19:14:57.826Z,100876.34
2017-09-05T19:17:26.115Z,100870.02
2017-09-05T19:19:53.510Z,100872.23
2017-09-05T19:22:20.899Z,100865.91
2017-09-05T19:24:48.284Z,100864.47
2017-09-05T19:27:15.679Z,100865.16
2017-09-05T19:29:43.986Z,100867.76
2017-09-05T19:32:11.495Z,100864.64
2017-09-05T19:34:38.946Z,100864.00
2017-09-05T19:37:06.379Z,100861.84
2017-09-05T19:39:33.862Z,100870.28
2017-09-05T19:42:01.259Z,100861.42
2017-09-05T19:44:28.806Z,100863.17
2017-09-05T19:46:56.191Z,100856.86
2017-09-05T19:49:23.596Z,100864.03
2017-09-05T19:51:50.982Z,100858.94
2017-09-05T19:54:18.371Z,100857.48
2017-09-05T19:56:45.756Z,100863.14
2017-09-05T19:59:13.146Z,100858.83
2017-09-05T20:01:40.895Z,100852.86
2017-09-05T20:04:08.297Z,100851.51
2017-09-05T20:06:35.739Z,100848.59
2017-09-05T20:09:03.127Z,100854.05
2017-09-05T20:11:30.516Z,100852.35
2017-09-05T20:13:57.915Z,100855.99
2017-09-05T20:16:25.314Z,100849.27
2017-09-05T20:18:52.762Z,100850.00
2017-09-05T20:21:20.146Z,100845.81
2017-09-05T20:23:47.544Z,100847.81
2017-09-05T20:26:14.925Z,100845.05
2017-09-05T20:28:42.320Z,100843.70
2017-09-05T20:31:09.711Z,100844.23
2017-09-05T20:33:37.130Z,100842.23
2017-09-05T20:36:04.510Z,100844.70
2017-09-05T20:38:31.908Z,100843.89
2017-09-05T20:40:59.318Z,100840.58
2017-09-05T20:43:26.867Z,100840.01
2017-09-05T20:45:54.278Z,100835.09
2017-09-05T20:48:21.782Z,100834.06
2017-09-05T20:50:49.168Z,100826.09
2017-09-05T20:53:16.650Z,100829.09
2017-09-05T20:55:44.034Z,100823.13
2017-09-05T20:58:11.423Z,100826.10
2017-09-05T21:00:38.918Z,100818.11
2017-09-05T21:03:06.312Z,100816.08
2017-09-05T21:05:33.709Z,100815.63
2017-09-05T21:08:01.090Z,100814.38
2017-09-05T21:10:28.481Z,100815.48
2017-09-05T21:12:55.863Z,100808.40
2017-09-05T21:15:23.254Z,100796.70
2017-09-05T21:17:50.634Z,100792.76
2017-09-05T21:20:18.032Z,100793.64
2017-09-05T21:22:45.415Z,100797.92
2017-09-05T21:25:12.797Z,100791.55
2017-09-05T21:27:40.183Z,100793.62
2017-09-05T21:30:07.574Z,100789.26
2017-09-05T21:32:35.063Z,100791.38
2017-09-05T21:35:02.499Z,100783.30
2017-09-05T21:37:29.960Z,100775.41
2017-09-05T21:39:57.355Z,100775.98
2017-09-05T21:42:24.747Z,100777.74
2017-09-05T21:44:52.134Z,100777.71
2017-09-05T21:47:19.580Z,100773.12
2017-09-05T21:49:46.970Z,100762.58
2017-09-05T21:52:14.359Z,100765.83
2017-09-05T21:54:41.751Z,100763.59
2017-09-05T21:57:09.210Z,100763.11
2017-09-05T21:59:36.662Z,100761.80
2017-09-05T22:02:04.062Z,100761.81
2017-09-05T22:04:31.473Z,100763.92
2017-09-05T22:06:58.932Z,100754.38
2017-09-05T22:09:26.381Z,100753.38
2017-09-05T22:11:53.777Z,100755.97
2017-09-05T22:14:26.825Z,100759.39
2017-09-05T22:16:54.226Z,100757.83
2017-09-05T22:22:19.695Z,100751.52
2017-09-05T22:24:52.672Z,100750.52
2017-09-05T22:27:25.724Z,100748.30
2017-09-05T22:29:53.102Z,100738.67
2017-09-05T22:32:20.486Z,100739.11
2017-09-05T22:34:47.960Z,100745.16
2017-09-05T22:37:15.422Z,100743.75
2017-09-05T22:39:42.814Z,100742.39
2017-09-05T22:42:10.200Z,100733.80
2017-09-05T22:44:37.687Z,100739.02
2017-09-05T22:47:05.073Z,100738.32
2017-09-05T22:49:32.471Z,100729.82
2017-09-05T22:51:59.950Z,100731.94
2017-09-05T22:54:27.342Z,100731.20
2017-09-05T22:56:54.766Z,100727.39
2017-09-05T22:59:22.151Z,100724.27
2017-09-05T23:01:49.547Z,100729.33
2017-09-05T23:04:17.037Z,100729.86
2017-09-05T23:06:44.427Z,100725.75
2017-09-05T23:09:11.843Z,100733.80
2017-09-05T23:11:39.229Z,100728.84
2017-09-05T23:14:06.657Z,100726.59
2017-09-05T23:16:34.050Z,100721.02
2017-09-05T23:19:01.465Z,100725.30
2017-09-05T23:21:28.858Z,100724.53
2017-09-05T23:23:56.247Z,100718.73
2017-09-05T23:26:23.654Z,100713.89
2017-09-05T23:28:51.043Z,100712.86
2017-09-05T23:31:18.438Z,100710.81
2017-09-05T23:33:45.899Z,100696.77
2017-09-05T23:36:13.354Z,100704.14
2017-09-05T23:38:40.738Z,100702.25
2017-09-05T23:41:08.136Z,100691.05
2017-09-05T23:43:35.634Z,100682.78
2017-09-05T23:46:03.030Z,100679.09
2017-09-05T23:48:30.443Z,100676.45
2017-09-05T23:50:57.838Z,100679.33
2017-09-05T23:53:25.246Z,100669.09
2017-09-05T23:55:52.708Z,100663.33
2017-09-05T23:58:20.098Z,100663.75
